Time;durP1;ratioP1;P1;durP2;ratioP2;P2;SDS_P1;SDS_P2;PMS_P1;PMS_P2;Temp;Humidity;BMP_temperature;BMP_pressure;BME280_temperature;BME280_humidity;BME280_pressure;Samples;Min_cycle;Max_cycle;Signal;HPM_P1;HPM_P2
2022/08/20 00:00:16;;;;;;;9.00;5.65;;;;;;;20.30;100.00;100550.03;8296937;28;20101;-47
2022/08/20 00:04:16;;;;;;;6.20;4.80;;;;;;;20.30;100.00;100549.19;8325613;28;20040;-48
2022/08/20 00:08:17;;;;;;;8.00;5.15;;;;;;;20.29;100.00;100536.50;8340492;28;20288;-48
2022/08/20 00:12:17;;;;;;;11.32;5.47;;;;;;;20.33;100.00;100544.13;8300216;28;20045;-48
2022/08/20 00:16:21;;;;;;;6.80;5.05;;;;;;;20.33;100.00;100541.38;8304991;28;20046;-48
2022/08/20 00:20:28;;;;;;;6.85;6.07;;;;;;;20.26;100.00;100536.91;8298913;28;20041;-47
2022/08/20 00:24:28;;;;;;;10.85;6.35;;;;;;;20.32;100.00;100542.44;8300916;28;20108;-48
2022/08/20 00:28:28;;;;;;;12.52;6.20;;;;;;;20.24;100.00;100544.50;8298533;28;20060;-50
2022/08/20 00:32:30;;;;;;;11.52;7.35;;;;;;;20.28;100.00;100551.28;8294624;28;20056;-50
2022/08/20 00:36:30;;;;;;;11.43;6.97;;;;;;;20.14;100.00;100538.53;8294839;28;20145;-47
2022/08/20 00:40:39;;;;;;;11.00;6.30;;;;;;;20.26;100.00;100532.28;8316025;28;20140;-47
2022/08/20 00:44:45;;;;;;;11.70;6.28;;;;;;;20.17;100.00;100527.13;8356165;28;20259;-49
2022/08/20 00:48:49;;;;;;;6.47;5.88;;;;;;;20.11;100.00;100527.91;8352855;28;20032;-48
2022/08/20 00:52:51;;;;;;;9.60;5.68;;;;;;;20.20;100.00;100534.97;8342728;28;20040;-48
2022/08/20 00:56:57;;;;;;;8.20;6.35;;;;;;;20.16;100.00;100525.47;8349868;28;20051;-50
2022/08/20 01:00:58;;;;;;;13.82;7.25;;;;;;;20.26;100.00;100532.28;8338763;28;20034;-48
2022/08/20 01:04:59;;;;;;;9.45;7.20;;;;;;;20.29;100.00;100531.88;8331007;28;20033;-48
2022/08/20 01:09:00;;;;;;;10.85;7.25;;;;;;;20.26;100.00;100528.66;8324612;28;20026;-49
2022/08/20 01:13:08;;;;;;;9.00;7.38;;;;;;;20.20;100.00;100527.59;8327544;28;20040;-48
2022/08/20 01:17:15;;;;;;;8.70;6.47;;;;;;;20.12;100.00;100529.59;8327912;28;20068;-49
2022/08/20 01:21:21;;;;;;;8.32;6.63;;;;;;;20.08;100.00;100528.31;8316391;28;20045;-47
2022/08/20 01:25:37;;;;;;;8.95;7.28;;;;;;;20.16;100.00;100520.78;8297152;28;20041;-50
2022/08/20 01:29:39;;;;;;;9.90;6.97;;;;;;;20.03;100.00;100519.84;8313074;28;20128;-47
2022/08/20 01:33:40;;;;;;;10.05;7.30;;;;;;;20.05;100.00;100521.34;8325014;28;20406;-48
2022/08/20 01:37:40;;;;;;;15.35;9.32;;;;;;;20.08;100.00;100522.81;8326930;28;20040;-48
2022/08/20 01:42:20;;;;;;;16.05;9.75;;;;;;;20.09;100.00;100519.03;8325554;28;20041;-47
2022/08/20 01:46:25;;;;;;;13.52;9.23;;;;;;;20.02;100.00;100531.88;8326217;28;20053;-47
2022/08/20 01:50:29;;;;;;;15.02;9.73;;;;;;;20.02;100.00;100529.13;8326634;28;20067;-47
2022/08/20 01:54:31;;;;;;;14.55;8.93;;;;;;;20.14;100.00;100522.06;8324173;28;21073;-49
2022/08/20 01:58:34;;;;;;;11.73;9.18;;;;;;;20.20;100.00;100534.97;8326332;28;20052;-47
2022/08/20 02:02:34;;;;;;;13.38;10.00;;;;;;;20.24;100.00;100528.00;8321595;28;20395;-48
2022/08/20 02:06:39;;;;;;;15.40;9.02;;;;;;;20.25;100.00;100535.22;8319281;28;21187;-47
2022/08/20 02:10:40;;;;;;;13.82;9.57;;;;;;;20.26;100.00;100531.41;8324241;28;20032;-50
2022/08/20 02:14:43;;;;;;;12.05;9.90;;;;;;;20.22;100.00;100525.47;8324699;28;20041;-49
2022/08/20 02:18:43;;;;;;;14.20;9.30;;;;;;;20.41;100.00;100532.13;8323622;28;20503;-47
2022/08/20 02:22:48;;;;;;;14.50;10.15;;;;;;;20.44;100.00;100531.72;8325867;28;20037;-47
2022/08/20 02:26:49;;;;;;;12.00;9.77;;;;;;;20.40;100.00;100533.19;8322404;28;20040;-48
2022/08/20 02:30:54;;;;;;;12.45;9.43;;;;;;;20.35;100.00;100527.47;8322778;28;20091;-47
2022/08/20 02:34:55;;;;;;;13.02;9.18;;;;;;;20.43;100.00;100527.31;8322313;28;20037;-48
2022/08/20 02:38:55;;;;;;;12.77;9.65;;;;;;;20.45;100.00;100531.53;8322156;28;20411;-47
2022/08/20 02:42:56;;;;;;;15.85;10.55;;;;;;;20.44;100.00;100535.34;8325638;28;20495;-50
2022/08/20 02:46:57;;;;;;;15.20;10.80;;;;;;;20.33;100.00;100529.53;8344040;28;20073;-48
2022/08/20 02:51:02;;;;;;;15.38;11.00;;;;;;;20.46;100.00;100532.38;8351615;28;20127;-53
2022/08/20 02:55:03;;;;;;;14.63;10.48;;;;;;;20.58;100.00;100528.84;8358089;28;20049;-53
2022/08/20 02:59:04;;;;;;;14.05;9.68;;;;;;;20.54;100.00;100530.31;8356202;28;20044;-49
2022/08/20 03:03:09;;;;;;;11.18;8.35;;;;;;;20.40;100.00;100523.03;8354863;28;20686;-51
2022/08/20 03:07:10;;;;;;;14.00;8.95;;;;;;;20.49;100.00;100532.81;8358786;28;20112;-49
2022/08/20 03:11:12;;;;;;;14.05;10.23;;;;;;;20.50;100.00;100528.16;8358217;28;20144;-48
2022/08/20 03:15:12;;;;;;;17.13;11.60;;;;;;;20.62;100.00;100532.03;8358326;28;20467;-51
2022/08/20 03:19:13;;;;;;;20.05;12.35;;;;;;;20.54;100.00;100526.69;8352575;28;20041;-50
2022/08/20 03:23:13;;;;;;;16.67;12.13;;;;;;;20.53;100.00;100533.25;8327042;28;20543;-50
2022/08/20 03:27:14;;;;;;;16.92;12.30;;;;;;;20.52;100.00;100526.91;8333604;28;20033;-50
2022/08/20 03:31:14;;;;;;;21.23;12.98;;;;;;;20.69;100.00;100530.16;8353909;28;20499;-52
2022/08/20 03:35:19;;;;;;;16.55;13.55;;;;;;;20.66;100.00;100533.31;8351985;28;20499;-50
2022/08/20 03:39:19;;;;;;;20.95;12.45;;;;;;;20.49;100.00;100526.50;8353814;28;20075;-51
2022/08/20 03:43:20;;;;;;;20.55;14.10;;;;;;;20.37;100.00;100522.63;8357036;28;20041;-52
2022/08/20 03:47:20;;;;;;;21.20;14.05;;;;;;;20.30;100.00;100532.69;8354621;28;20311;-50
2022/08/20 03:51:20;;;;;;;23.83;15.63;;;;;;;20.28;100.00;100527.41;8357386;28;20113;-51
2022/08/20 03:55:21;;;;;;;25.07;17.03;;;;;;;20.31;100.00;100526.19;8358358;28;20275;-49
2022/08/20 03:59:22;;;;;;;27.92;18.73;;;;;;;20.26;100.00;100523.19;8352316;28;20283;-52
2022/08/20 04:03:23;;;;;;;30.13;19.60;;;;;;;20.27;100.00;100516.63;8355841;28;20033;-51
2022/08/20 04:07:24;;;;;;;33.83;19.27;;;;;;;20.35;100.00;100519.22;8340531;28;20049;-51
2022/08/20 04:11:24;;;;;;;28.38;19.55;;;;;;;20.38;100.00;100530.66;8347285;28;20125;-52
2022/08/20 04:15:25;;;;;;;34.47;20.17;;;;;;;20.34;100.00;100525.78;8327459;28;20395;-52
2022/08/20 04:19:26;;;;;;;29.15;19.35;;;;;;;20.40;100.00;100527.72;8351536;28;20087;-48
2022/08/20 04:23:26;;;;;;;36.95;20.73;;;;;;;20.33;100.00;100538.66;8354344;28;20509;-50
2022/08/20 04:27:27;;;;;;;32.10;21.23;;;;;;;20.28;100.00;100540.31;8352795;28;20403;-51
2022/08/20 04:31:31;;;;;;;32.92;22.23;;;;;;;20.23;100.00;100545.56;8356912;28;20067;-49
2022/08/20 04:35:32;;;;;;;30.42;21.48;;;;;;;20.22;100.00;100552.94;8355115;28;20060;-48
2022/08/20 04:39:32;;;;;;;38.35;22.65;;;;;;;20.21;100.00;100564.13;8354911;28;20041;-49
2022/08/20 04:43:35;;;;;;;31.25;21.77;;;;;;;20.20;100.00;100576.16;8355579;28;20159;-52
2022/08/20 04:47:36;;;;;;;30.75;21.60;;;;;;;20.20;100.00;100581.66;8354796;28;20128;-49
2022/08/20 04:51:36;;;;;;;30.37;21.53;;;;;;;20.12;100.00;100584.50;8355608;28;20086;-51
2022/08/20 04:55:41;;;;;;;28.65;20.10;;;;;;;20.15;100.00;100578.66;8355923;28;20411;-49
2022/08/20 04:59:42;;;;;;;32.03;21.00;;;;;;;20.12;100.00;100595.47;8344025;28;20261;-51
2022/08/20 05:03:59;;;;;;;32.13;22.65;;;;;;;19.94;100.00;100603.41;8342572;28;20044;-51
2022/08/20 05:08:00;;;;;;;32.28;23.25;;;;;;;19.89;100.00;100605.88;8326283;28;20044;-51
2022/08/20 05:12:01;;;;;;;34.10;24.13;;;;;;;19.83;100.00;100601.19;8350392;28;20043;-52
2022/08/20 05:16:03;;;;;;;30.55;22.70;;;;;;;19.81;100.00;100611.50;8353735;28;20061;-52
2022/08/20 05:20:07;;;;;;;34.25;23.02;;;;;;;19.75;100.00;100604.03;8349459;28;20056;-50
2022/08/20 05:24:08;;;;;;;37.10;23.83;;;;;;;19.73;100.00;100600.69;8355801;28;20498;-51
2022/08/20 05:28:15;;;;;;;31.63;20.70;;;;;;;19.67;100.00;100609.69;8350379;28;20116;-49
2022/08/20 05:32:15;;;;;;;30.15;19.90;;;;;;;19.56;100.00;100604.72;8350857;28;20116;-51
2022/08/20 05:36:16;;;;;;;33.13;19.50;;;;;;;19.61;100.00;100614.06;8354245;28;20041;-52
2022/08/20 05:40:16;;;;;;;30.08;19.83;;;;;;;19.52;100.00;100616.09;8348596;28;20788;-49
2022/08/20 05:44:18;;;;;;;32.93;18.53;;;;;;;19.60;100.00;100619.75;8323809;28;20051;-51
2022/08/20 05:48:22;;;;;;;27.23;17.90;;;;;;;19.57;100.00;100611.94;8332797;28;20683;-51
2022/08/20 05:52:22;;;;;;;29.13;17.35;;;;;;;19.57;100.00;100620.97;8324161;28;20446;-51
2022/08/20 05:56:23;;;;;;;29.95;19.88;;;;;;;19.65;100.00;100630.97;8314863;28;20033;-52
2022/08/20 06:00:24;;;;;;;33.22;18.42;;;;;;;19.70;100.00;100623.00;8336771;28;20028;-51
2022/08/20 06:04:26;;;;;;;24.30;17.33;;;;;;;19.76;100.00;100627.72;8344747;28;20040;-50
2022/08/20 06:08:27;;;;;;;25.98;16.35;;;;;;;19.90;100.00;100632.25;8319380;28;20291;-49
2022/08/20 06:12:28;;;;;;;24.17;15.38;;;;;;;19.95;100.00;100632.53;8291237;28;20041;-51
2022/08/20 06:16:29;;;;;;;21.45;15.85;;;;;;;20.11;100.00;100629.50;8334830;28;20071;-48
2022/08/20 06:20:29;;;;;;;19.80;15.27;;;;;;;20.18;100.00;100630.41;8348889;28;20044;-49
2022/08/20 06:24:30;;;;;;;23.40;15.73;;;;;;;20.31;100.00;100644.25;8346289;28;20072;-51
2022/08/20 06:28:30;;;;;;;21.42;14.45;;;;;;;20.27;100.00;100643.81;8340329;28;20509;-49
2022/08/20 06:32:32;;;;;;;21.48;15.00;;;;;;;20.18;100.00;100644.13;8336535;28;20042;-51
2022/08/20 06:36:33;;;;;;;23.75;13.63;;;;;;;19.87;100.00;100655.47;8312978;28;20046;-49
2022/08/20 06:40:33;;;;;;;28.40;15.02;;;;;;;19.85;100.00;100659.47;8341884;28;20040;-51
2022/08/20 06:44:35;;;;;;;24.90;16.13;;;;;;;19.95;100.00;100659.97;8336988;28;20491;-51
2022/08/20 06:48:36;;;;;;;23.77;15.50;;;;;;;20.00;100.00;100668.47;8328945;28;20143;-49
2022/08/20 06:52:38;;;;;;;24.27;15.35;;;;;;;19.97;100.00;100663.38;8341145;28;20033;-51
2022/08/20 06:56:38;;;;;;;25.80;16.73;;;;;;;20.11;100.00;100673.41;8333710;28;20383;-48
2022/08/20 07:00:42;;;;;;;33.10;17.25;;;;;;;20.28;100.00;100666.63;8326169;28;20069;-51
2022/08/20 07:04:43;;;;;;;26.27;16.88;;;;;;;20.43;100.00;100681.13;8322784;28;20524;-51
2022/08/20 07:08:43;;;;;;;23.90;17.05;;;;;;;20.37;100.00;100682.75;8341517;28;20424;-48
2022/08/20 07:12:45;;;;;;;29.40;16.98;;;;;;;20.43;100.00;100681.13;8317254;28;20045;-50
2022/08/20 07:16:46;;;;;;;27.08;17.33;;;;;;;20.36;100.00;100685.69;8312727;28;20041;-51
2022/08/20 07:20:47;;;;;;;27.38;17.27;;;;;;;20.34;100.00;100676.81;8313290;28;20048;-51
2022/08/20 07:24:47;;;;;;;26.05;16.50;;;;;;;20.29;100.00;100690.28;8338324;28;20080;-50
2022/08/20 07:28:47;;;;;;;23.83;15.98;;;;;;;20.43;100.00;100681.13;8340109;28;20060;-50
2022/08/20 07:32:48;;;;;;;25.20;17.00;;;;;;;20.85;100.00;100680.94;8338999;28;20458;-51
2022/08/20 07:36:49;;;;;;;18.90;14.68;;;;;;;21.18;100.00;100687.50;8332178;28;20418;-50
2022/08/20 07:40:51;;;;;;;24.45;16.77;;;;;;;21.38;100.00;100693.94;8339049;28;20404;-51
2022/08/20 07:44:52;;;;;;;29.17;18.52;;;;;;;21.17;97.71;100692.16;8340785;28;20029;-49
2022/08/20 07:48:52;;;;;;;28.42;18.13;;;;;;;21.05;100.00;100703.94;8343167;28;20041;-52
2022/08/20 07:52:53;;;;;;;29.90;19.98;;;;;;;20.94;100.00;100698.97;8334619;28;20041;-48
2022/08/20 07:56:54;;;;;;;23.05;18.50;;;;;;;21.20;100.00;100701.91;8342685;28;20510;-48
2022/08/20 08:00:54;;;;;;;29.83;19.02;;;;;;;21.32;98.93;100708.53;8338856;28;20063;-48
2022/08/20 08:04:55;;;;;;;28.88;17.20;;;;;;;21.57;99.58;100709.66;8344557;28;20534;-49
2022/08/20 08:09:05;;;;;;;24.38;17.42;;;;;;;21.55;99.14;100700.75;8348778;28;20036;-50
2022/08/20 08:13:08;;;;;;;25.95;18.00;;;;;;;21.45;99.95;100697.56;8349091;28;20421;-48
2022/08/20 08:17:09;;;;;;;18.63;15.30;;;;;;;21.56;97.22;100696.94;8345587;28;20048;-50
2022/08/20 08:21:11;;;;;;;22.20;15.45;;;;;;;21.62;95.09;100696.13;8336945;28;20040;-48
2022/08/20 08:25:15;;;;;;;20.77;14.50;;;;;;;21.67;93.49;100699.09;8345572;28;20041;-49
2022/08/20 08:29:16;;;;;;;16.42;12.52;;;;;;;21.72;93.30;100707.59;8349031;28;20029;-48
2022/08/20 08:33:27;;;;;;;21.48;13.02;;;;;;;21.72;93.51;100704.00;8342512;28;20041;-48
2022/08/20 08:37:28;;;;;;;20.73;12.55;;;;;;;22.10;93.65;100700.47;8344192;28;20065;-51
2022/08/20 08:41:34;;;;;;;17.33;13.00;;;;;;;21.98;91.66;100715.94;8327596;28;20038;-51
2022/08/20 08:45:44;;;;;;;17.17;11.85;;;;;;;22.30;90.60;100717.88;8337726;28;20033;-49
2022/08/20 08:49:46;;;;;;;22.73;10.85;;;;;;;23.10;85.86;100721.19;8335154;28;20359;-48
2022/08/20 08:53:53;;;;;;;17.40;11.18;;;;;;;23.02;85.23;100726.94;8343882;28;20057;-49
2022/08/20 08:57:59;;;;;;;16.80;10.13;;;;;;;22.80;85.99;100720.00;8333718;28;20060;-50
2022/08/20 09:02:01;;;;;;;26.05;11.15;;;;;;;22.84;86.05;100720.41;8330175;28;20091;-49
2022/08/20 09:06:02;;;;;;;19.00;11.45;;;;;;;22.92;86.11;100723.78;8339559;28;20565;-51
2022/08/20 09:10:03;;;;;;;17.33;11.45;;;;;;;22.83;87.34;100725.06;8345148;28;20026;-52
2022/08/20 09:14:03;;;;;;;19.70;10.32;;;;;;;22.38;87.22;100736.94;8349280;28;20049;-49
2022/08/20 09:18:04;;;;;;;17.10;9.50;;;;;;;22.83;87.80;100744.38;8335712;28;20056;-50
2022/08/20 09:22:08;;;;;;;16.92;9.70;;;;;;;23.12;85.60;100745.81;8329518;28;20277;-48
2022/08/20 09:26:09;;;;;;;18.95;10.98;;;;;;;22.74;86.71;100734.63;8342982;28;20562;-51
2022/08/20 09:30:10;;;;;;;23.88;11.23;;;;;;;22.92;86.41;100740.34;8332081;28;20550;-53
2022/08/20 09:34:10;;;;;;;17.15;9.40;;;;;;;23.54;83.36;100745.25;8338225;28;20107;-54
2022/08/20 09:38:12;;;;;;;24.33;9.73;;;;;;;23.78;80.94;100751.97;8334925;28;20056;-55
2022/08/20 09:42:17;;;;;;;19.92;9.25;;;;;;;23.60;81.59;100749.06;8324466;28;20443;-50
2022/08/20 09:46:17;;;;;;;10.65;7.53;;;;;;;24.97;76.85;100755.34;8341228;28;20021;-51
2022/08/20 09:50:17;;;;;;;14.77;7.57;;;;;;;25.18;74.59;100756.81;8326337;28;20030;-49
2022/08/20 09:54:20;;;;;;;15.98;7.75;;;;;;;24.29;76.83;100755.47;8331644;28;20637;-53
2022/08/20 09:58:43;;;;;;;13.10;7.60;;;;;;;23.71;79.40;100760.25;8338969;28;20034;-52
2022/08/20 10:02:44;;;;;;;15.15;7.40;;;;;;;23.31;81.17;100750.44;8304239;28;20474;-53
2022/08/20 10:06:44;;;;;;;11.68;7.95;;;;;;;23.26;80.75;100752.19;8334943;28;20086;-53
2022/08/20 10:10:45;;;;;;;16.88;8.00;;;;;;;23.21;81.62;100750.84;8334035;28;20376;-50
2022/08/20 10:14:45;;;;;;;16.40;7.93;;;;;;;23.32;81.97;100756.81;8311166;28;20134;-50
2022/08/20 10:18:48;;;;;;;23.02;8.65;;;;;;;23.38;81.26;100761.44;8327554;28;20272;-51
2022/08/20 10:22:48;;;;;;;17.08;9.00;;;;;;;23.43;82.83;100747.84;8330558;28;20826;-51
2022/08/20 10:26:49;;;;;;;20.50;11.05;;;;;;;23.21;83.38;100764.66;8337080;28;20434;-53
2022/08/20 10:30:49;;;;;;;16.30;8.98;;;;;;;24.25;78.52;100759.75;8339317;28;20349;-50
2022/08/20 10:34:50;;;;;;;22.10;10.73;;;;;;;24.15;77.40;100753.91;8337593;28;20461;-51
2022/08/20 10:38:50;;;;;;;16.83;9.82;;;;;;;23.79;79.69;100753.66;8315181;28;20053;-53
2022/08/20 10:42:50;;;;;;;21.25;11.00;;;;;;;23.74;81.10;100764.50;8344967;28;20037;-51
2022/08/20 10:46:51;;;;;;;24.05;11.68;;;;;;;24.27;78.30;100769.50;8349179;28;20056;-50
2022/08/20 10:50:51;;;;;;;24.88;12.35;;;;;;;25.40;76.62;100763.63;8347157;28;20037;-53
2022/08/20 10:54:53;;;;;;;18.90;10.13;;;;;;;26.61;69.04;100765.97;8348034;28;20486;-52
2022/08/20 10:58:54;;;;;;;16.05;9.02;;;;;;;25.91;70.20;100780.66;8344632;28;20072;-53
2022/08/20 11:02:54;;;;;;;20.83;9.30;;;;;;;25.85;70.58;100781.59;8328148;28;20047;-53
2022/08/20 11:06:54;;;;;;;17.50;9.18;;;;;;;26.24;69.42;100767.19;8336149;28;20052;-52
2022/08/20 11:10:55;;;;;;;45.33;19.90;;;;;;;26.70;68.26;100775.66;8338517;28;20558;-51
2022/08/20 11:14:55;;;;;;;127.68;48.90;;;;;;;27.66;64.41;100786.25;8345205;28;20044;-48
2022/08/20 11:18:56;;;;;;;18.55;9.80;;;;;;;28.84;61.09;100779.69;8337034;28;20042;-47
2022/08/20 11:22:57;;;;;;;14.95;8.40;;;;;;;27.56;62.18;100775.75;8344013;28;20037;-48
2022/08/20 11:26:57;;;;;;;15.10;7.88;;;;;;;26.90;65.82;100772.56;8349557;28;20041;-49
2022/08/20 11:30:59;;;;;;;24.83;7.88;;;;;;;27.15;65.73;100777.84;8344240;28;20301;-51
2022/08/20 11:34:59;;;;;;;17.95;7.88;;;;;;;30.16;58.37;100781.31;8331619;28;20067;-49
2022/08/20 11:39:00;;;;;;;15.48;7.68;;;;;;;30.82;55.52;100774.44;8324578;28;20079;-49
2022/08/20 11:43:00;;;;;;;20.33;8.75;;;;;;;30.70;55.26;100773.78;8335610;28;20050;-48
2022/08/20 11:47:02;;;;;;;21.90;8.07;;;;;;;30.42;56.47;100788.84;8349612;28;21061;-48
2022/08/20 11:51:04;;;;;;;19.45;8.55;;;;;;;28.64;60.03;100784.91;8343191;28;20283;-47
2022/08/20 11:55:07;;;;;;;19.02;9.20;;;;;;;30.67;56.26;100774.31;8324833;28;20048;-47
2022/08/20 11:59:07;;;;;;;26.20;8.23;;;;;;;30.50;57.39;100774.44;8331334;28;20559;-48
2022/08/20 12:03:08;;;;;;;18.35;7.50;;;;;;;29.65;58.04;100771.50;8349768;28;20098;-48
2022/08/20 12:07:10;;;;;;;15.27;6.82;;;;;;;28.61;60.43;100763.16;8340631;28;20039;-48
2022/08/20 12:11:11;;;;;;;15.20;7.53;;;;;;;27.54;62.51;100766.00;8331492;28;20465;-47
2022/08/20 12:15:11;;;;;;;20.63;7.60;;;;;;;25.84;65.53;100768.81;8344399;28;20052;-49
2022/08/20 12:19:12;;;;;;;13.98;6.63;;;;;;;26.03;65.29;100761.34;8330303;28;20678;-49
2022/08/20 12:23:13;;;;;;;15.38;6.88;;;;;;;26.36;64.95;100768.09;8333376;28;20051;-47
2022/08/20 12:27:21;;;;;;;18.40;7.78;;;;;;;26.51;64.14;100754.63;8329659;28;20040;-48
2022/08/20 12:31:22;;;;;;;14.95;6.22;;;;;;;26.42;66.88;100767.13;8338650;28;20132;-48
2022/08/20 12:35:23;;;;;;;19.45;8.30;;;;;;;25.26;65.56;100763.97;8333322;28;20045;-47
2022/08/20 12:39:23;;;;;;;16.65;6.43;;;;;;;25.95;64.93;100765.25;8321373;28;20041;-48
2022/08/20 12:43:23;;;;;;;17.17;7.10;;;;;;;25.75;64.35;100764.69;8328215;28;20086;-48
2022/08/20 12:47:27;;;;;;;15.85;6.22;;;;;;;26.39;63.19;100759.28;8345788;28;20045;-47
2022/08/20 12:51:28;;;;;;;18.30;7.03;;;;;;;25.91;63.91;100755.72;8322196;28;20075;-51
2022/08/20 12:55:29;;;;;;;16.43;5.60;;;;;;;25.55;63.56;100746.63;8323237;28;20036;-50
2022/08/20 12:59:29;;;;;;;17.50;4.97;;;;;;;25.73;63.08;100750.19;8323400;28;20289;-50
2022/08/20 13:03:30;;;;;;;15.32;4.97;;;;;;;25.57;63.23;100756.38;8354942;28;20117;-47
2022/08/20 13:07:30;;;;;;;13.32;4.70;;;;;;;25.81;62.28;100741.59;8322997;28;20037;-47
2022/08/20 13:11:32;;;;;;;14.85;3.90;;;;;;;25.18;62.44;100745.75;8343151;28;20025;-47
2022/08/20 13:15:32;;;;;;;12.68;3.70;;;;;;;25.66;60.15;100738.38;8350941;28;20190;-47
2022/08/20 13:19:34;;;;;;;16.27;4.45;;;;;;;25.75;61.18;100741.66;8330283;28;20033;-47
2022/08/20 13:23:35;;;;;;;21.40;3.90;;;;;;;25.79;60.44;100732.66;8348067;28;20044;-47
2022/08/20 13:27:39;;;;;;;12.00;3.33;;;;;;;25.00;60.34;100737.41;8336854;28;20033;-47
2022/08/20 13:31:40;;;;;;;13.50;4.18;;;;;;;25.00;61.62;100734.66;8327428;28;20298;-47
2022/08/20 13:35:40;;;;;;;15.13;3.63;;;;;;;25.12;62.81;100730.06;8324429;28;20038;-47
2022/08/20 13:39:41;;;;;;;14.00;3.58;;;;;;;25.64;61.40;100729.44;8335703;28;20131;-47
2022/08/20 13:43:41;;;;;;;8.48;2.55;;;;;;;25.85;58.84;100726.16;8344546;28;20146;-47
2022/08/20 13:47:42;;;;;;;12.23;2.90;;;;;;;26.12;55.80;100716.44;8338665;28;20132;-47
2022/08/20 13:51:43;;;;;;;8.15;2.20;;;;;;;25.87;56.45;100718.47;8332972;28;20764;-53
2022/08/20 13:55:44;;;;;;;10.55;2.42;;;;;;;25.66;56.15;100720.91;8344803;28;20404;-54
2022/08/20 13:59:47;;;;;;;8.85;2.95;;;;;;;25.73;56.68;100716.09;8335029;28;20524;-50
2022/08/20 14:03:47;;;;;;;8.45;2.40;;;;;;;25.70;56.76;100716.56;8335681;28;20389;-50
2022/08/20 14:07:49;;;;;;;7.65;1.85;;;;;;;25.74;57.20;100712.28;8345739;28;20057;-53
2022/08/20 14:11:49;;;;;;;9.55;2.88;;;;;;;25.88;57.21;100720.16;8345961;28;20132;-50
2022/08/20 14:15:50;;;;;;;11.35;3.03;;;;;;;25.37;57.08;100710.66;8348876;28;20498;-52
2022/08/20 14:19:55;;;;;;;7.43;2.08;;;;;;;26.01;52.87;100708.91;8346033;28;20120;-51
2022/08/20 14:23:57;;;;;;;8.93;2.58;;;;;;;25.96;53.57;100711.53;8342577;28;20041;-53
2022/08/20 14:27:58;;;;;;;9.93;2.10;;;;;;;25.86;54.19;100710.41;8346289;28;20030;-53
2022/08/20 14:31:58;;;;;;;12.98;2.25;;;;;;;25.82;53.71;100715.56;8331889;28;20735;-51
2022/08/20 14:35:59;;;;;;;7.35;1.83;;;;;;;25.30;52.70;100704.28;8347199;28;20068;-51
2022/08/20 14:40:02;;;;;;;8.43;1.80;;;;;;;25.60;52.99;100706.06;8342532;28;20156;-53
2022/08/20 14:44:03;;;;;;;9.55;1.75;;;;;;;25.90;52.43;100704.16;8346007;28;20280;-53
2022/08/20 14:48:08;;;;;;;5.32;1.67;;;;;;;25.92;52.60;100704.75;8339452;28;20056;-52
2022/08/20 14:52:09;;;;;;;8.20;1.80;;;;;;;25.92;52.18;100703.91;8325535;28;20037;-52
2022/08/20 14:56:09;;;;;;;5.10;2.05;;;;;;;26.00;54.16;100701.69;8334106;28;20049;-50
2022/08/20 15:00:16;;;;;;;8.73;2.08;;;;;;;25.89;52.47;100699.66;8331516;28;20042;-47
2022/08/20 15:04:18;;;;;;;10.18;2.00;;;;;;;25.92;51.48;100710.28;8310520;28;20034;-47
2022/08/20 15:08:18;;;;;;;7.57;1.70;;;;;;;25.90;50.42;100701.38;8312280;28;20456;-47
2022/08/20 15:12:19;;;;;;;6.97;1.80;;;;;;;25.98;52.68;100709.38;8343469;28;20065;-47
2022/08/20 15:16:19;;;;;;;10.52;2.55;;;;;;;25.63;53.64;100705.59;8317754;28;20284;-48
2022/08/20 15:20:22;;;;;;;11.90;2.53;;;;;;;25.51;54.52;100704.69;8340370;28;20392;-47
2022/08/20 15:24:23;;;;;;;8.70;2.30;;;;;;;25.64;52.58;100710.06;8352307;28;20052;-47
2022/08/20 15:28:23;;;;;;;10.68;2.42;;;;;;;25.61;52.31;100702.22;8343953;28;20454;-47
2022/08/20 15:32:24;;;;;;;7.97;2.13;;;;;;;25.76;53.21;100699.88;8330880;28;20494;-48
2022/08/20 15:36:24;;;;;;;7.75;2.65;;;;;;;25.42;52.73;100695.03;8343267;28;20414;-48
2022/08/20 15:40:28;;;;;;;5.80;2.33;;;;;;;25.39;52.29;100698.25;8336994;28;20045;-47
2022/08/20 15:44:28;;;;;;;9.85;2.63;;;;;;;25.50;53.68;100693.84;8340669;28;20029;-48
2022/08/20 15:48:34;;;;;;;9.23;2.67;;;;;;;25.75;54.46;100695.41;8323989;28;20516;-47
2022/08/20 15:52:40;;;;;;;6.45;2.10;;;;;;;25.72;53.22;100693.13;8373098;28;20032;-48
2022/08/20 15:57:00;;;;;;;8.00;3.03;;;;;;;25.69;53.95;100696.34;8344198;28;20063;-47
2022/08/20 16:01:12;;;;;;;6.13;2.30;;;;;;;25.57;54.80;100695.47;8315147;28;21180;-49
2022/08/20 16:05:52;;;;;;;7.53;2.58;;;;;;;25.29;53.36;100699.84;8305987;28;20026;-48
2022/08/20 16:10:03;;;;;;;6.97;2.67;;;;;;;25.33;55.01;100699.19;8303398;28;20046;-47
2022/08/20 16:14:24;;;;;;;7.68;2.70;;;;;;;25.14;54.13;100691.06;8308830;28;20407;-49
2022/08/20 16:18:53;;;;;;;9.23;2.50;;;;;;;25.28;54.24;100696.22;8296911;28;20046;-49
2022/08/20 16:22:55;;;;;;;11.18;2.85;;;;;;;25.27;54.71;100694.53;8286377;28;20128;-47
2022/08/20 16:27:27;;;;;;;10.50;2.88;;;;;;;25.18;55.41;100684.84;8302803;28;20076;-49
2022/08/20 16:31:34;;;;;;;7.20;2.83;;;;;;;25.22;55.02;100686.06;8282767;28;20510;-48
2022/08/20 16:35:44;;;;;;;5.63;2.50;;;;;;;25.35;55.55;100685.97;8339110;28;20045;-49
2022/08/20 16:39:55;;;;;;;10.50;3.20;;;;;;;25.23;55.81;100676.72;8284057;28;20702;-48
2022/08/20 16:44:03;;;;;;;6.30;2.88;;;;;;;25.23;55.39;100675.84;8296911;28;20392;-51
2022/08/20 16:48:06;;;;;;;8.18;2.92;;;;;;;25.09;55.87;100677.09;8288950;28;20454;-48
2022/08/20 16:52:06;;;;;;;8.07;2.50;;;;;;;25.02;55.61;100682.72;8284189;28;20044;-47
2022/08/20 16:56:07;;;;;;;10.55;3.17;;;;;;;24.95;56.12;100679.19;8294622;28;20030;-47
2022/08/20 17:00:19;;;;;;;7.32;2.95;;;;;;;24.94;55.71;100678.31;8313338;28;20038;-46
2022/08/20 17:04:21;;;;;;;8.15;2.88;;;;;;;24.96;56.22;100664.25;8316822;28;20099;-47
2022/08/20 17:08:30;;;;;;;6.57;2.30;;;;;;;24.82;57.86;100669.09;8326666;28;20585;-49
2022/08/20 17:12:31;;;;;;;12.02;3.40;;;;;;;24.89;57.52;100667.09;8299933;28;20042;-50
2022/08/20 17:16:37;;;;;;;7.97;3.38;;;;;;;24.87;57.13;100665.63;8312019;28;20052;-47
2022/08/20 17:20:43;;;;;;;11.40;3.42;;;;;;;24.69;58.58;100674.78;8336806;28;20123;-48
2022/08/20 17:24:44;;;;;;;10.18;3.45;;;;;;;24.77;57.38;100676.41;8335760;28;20421;-48
2022/08/20 17:28:50;;;;;;;9.73;2.97;;;;;;;24.75;58.17;100670.22;8293338;28;20037;-48
2022/08/20 17:32:56;;;;;;;7.63;2.75;;;;;;;24.72;58.52;100673.44;8287999;28;20076;-49
2022/08/20 17:37:04;;;;;;;11.80;3.13;;;;;;;24.56;59.05;100674.00;8305849;28;20430;-48
2022/08/20 17:41:20;;;;;;;8.02;3.05;;;;;;;24.56;58.99;100677.63;8334645;28;20299;-47
2022/08/20 17:45:25;;;;;;;7.90;3.10;;;;;;;24.54;58.73;100682.53;8332010;28;20037;-47
2022/08/20 17:49:34;;;;;;;8.25;3.15;;;;;;;24.49;59.02;100689.81;8326561;28;20037;-47
2022/08/20 17:53:37;;;;;;;8.85;2.80;;;;;;;24.40;59.76;100688.41;8325927;28;20547;-48
2022/08/20 17:57:42;;;;;;;8.38;3.17;;;;;;;24.27;59.99;100702.31;8334249;28;20204;-48
2022/08/20 18:01:43;;;;;;;7.70;3.20;;;;;;;24.18;60.16;100698.19;8316332;28;20414;-49
2022/08/20 18:05:48;;;;;;;6.75;2.50;;;;;;;23.98;61.76;100703.00;8320452;28;20053;-48
2022/08/20 18:10:08;;;;;;;6.10;2.78;;;;;;;23.94;62.00;100701.72;8324464;28;20037;-48
2022/08/20 18:18:52;;;;;;;11.13;3.63;;;;;;;23.77;61.99;100700.53;8278191;28;20404;-47
2022/08/20 18:23:02;;;;;;;9.45;3.45;;;;;;;23.64;62.51;100700.63;8243211;28;20516;-49
2022/08/20 18:27:10;;;;;;;9.70;4.10;;;;;;;23.53;62.95;100704.06;8272897;28;20045;-50
2022/08/20 18:31:26;;;;;;;9.77;3.28;;;;;;;23.37;63.58;100696.28;8275899;28;20046;-50